Terminal Aerodrome Forecast
Issued by NWS

Home | Current Version | Previous Version | Text Only | Print | Product List | Glossary On
Versions: 1 2 3 4 5 6 7 8 9 10 11 12 13 14 15 16 17 18 19 20 21 22 23 24 25 26 27 28 29 30 31 32 33 34 35 36 37
000
FTUS45 KBOI 271938 AAA
TAFMYL
TAF AMD
KMYL 271938Z 2720/2818 VRB03KT 2SM -SN SCT007 OVC016
      TEMPO 2720/2722 3/4SM -SN
     FM272200 VRB03KT 1SM -SN OVC006
     FM281000 VRB05KT 3SM -SN SCT005 OVC015=

USA.gov is the U.S. government's official web portal to all federal, state and local government web resources and services.